sensor_id;sensor_type;location;lat;lon;timestamp;temperature;humidity
9519;DHT22;4797;50.220;8.782;2024-03-25T00:01:19;7.10;99.80
9519;DHT22;4797;50.220;8.782;2024-03-25T00:03:44;7.10;99.80
9519;DHT22;4797;50.220;8.782;2024-03-25T00:06:11;7.10;99.80
9519;DHT22;4797;50.220;8.782;2024-03-25T00:08:37;7.10;99.80
9519;DHT22;4797;50.220;8.782;2024-03-25T00:11:04;7.00;99.80
9519;DHT22;4797;50.220;8.782;2024-03-25T00:13:31;7.10;99.80
9519;DHT22;4797;50.220;8.782;2024-03-25T00:16:04;7.00;99.80
9519;DHT22;4797;50.220;8.782;2024-03-25T00:18:33;7.00;99.80
9519;DHT22;4797;50.220;8.782;2024-03-25T00:21:00;7.00;99.80
9519;DHT22;4797;50.220;8.782;2024-03-25T00:23:26;7.00;99.80
9519;DHT22;4797;50.220;8.782;2024-03-25T00:25:53;7.00;99.80
9519;DHT22;4797;50.220;8.782;2024-03-25T00:28:22;7.00;99.80
9519;DHT22;4797;50.220;8.782;2024-03-25T00:30:50;7.10;99.80
9519;DHT22;4797;50.220;8.782;2024-03-25T00:33:16;7.10;99.80
9519;DHT22;4797;50.220;8.782;2024-03-25T00:35:48;7.10;99.80
9519;DHT22;4797;50.220;8.782;2024-03-25T00:38:15;7.10;99.80
9519;DHT22;4797;50.220;8.782;2024-03-25T00:40:42;7.10;99.80
9519;DHT22;4797;50.220;8.782;2024-03-25T00:43:08;7.10;99.80
9519;DHT22;4797;50.220;8.782;2024-03-25T00:45:38;7.00;99.80
9519;DHT22;4797;50.220;8.782;2024-03-25T00:48:04;7.00;99.80
9519;DHT22;4797;50.220;8.782;2024-03-25T00:50:32;6.90;99.80
9519;DHT22;4797;50.220;8.782;2024-03-25T00:52:59;6.80;99.80
9519;DHT22;4797;50.220;8.782;2024-03-25T00:55:26;6.70;99.80
9519;DHT22;4797;50.220;8.782;2024-03-25T00:57:52;6.60;99.80
9519;DHT22;4797;50.220;8.782;2024-03-25T01:00:19;6.60;99.80
9519;DHT22;4797;50.220;8.782;2024-03-25T01:02:45;6.60;99.80
9519;DHT22;4797;50.220;8.782;2024-03-25T01:05:13;6.60;99.80
9519;DHT22;4797;50.220;8.782;2024-03-25T01:07:39;6.60;99.80
9519;DHT22;4797;50.220;8.782;2024-03-25T01:10:07;6.60;99.80
9519;DHT22;4797;50.220;8.782;2024-03-25T01:12:34;6.60;99.80
9519;DHT22;4797;50.220;8.782;2024-03-25T01:15:01;6.50;99.80
9519;DHT22;4797;50.220;8.782;2024-03-25T01:17:27;6.50;99.80
9519;DHT22;4797;50.220;8.782;2024-03-25T01:19:54;6.50;99.80
9519;DHT22;4797;50.220;8.782;2024-03-25T01:22:21;6.50;99.80
9519;DHT22;4797;50.220;8.782;2024-03-25T01:24:48;6.50;99.80
9519;DHT22;4797;50.220;8.782;2024-03-25T01:27:15;6.40;99.80
9519;DHT22;4797;50.220;8.782;2024-03-25T01:29:42;6.40;99.80
9519;DHT22;4797;50.220;8.782;2024-03-25T01:32:08;6.40;99.80
9519;DHT22;4797;50.220;8.782;2024-03-25T01:34:35;6.40;99.80
9519;DHT22;4797;50.220;8.782;2024-03-25T01:37:01;6.40;99.80
9519;DHT22;4797;50.220;8.782;2024-03-25T01:39:29;6.30;99.80
9519;DHT22;4797;50.220;8.782;2024-03-25T01:41:55;6.20;99.80
9519;DHT22;4797;50.220;8.782;2024-03-25T01:44:23;6.20;99.80
9519;DHT22;4797;50.220;8.782;2024-03-25T01:46:50;6.10;99.80
9519;DHT22;4797;50.220;8.782;2024-03-25T01:49:18;6.00;99.80
9519;DHT22;4797;50.220;8.782;2024-03-25T01:51:45;5.90;99.80
9519;DHT22;4797;50.220;8.782;2024-03-25T01:54:13;5.90;99.80
9519;DHT22;4797;50.220;8.782;2024-03-25T01:56:42;5.80;99.80
9519;DHT22;4797;50.220;8.782;2024-03-25T01:59:13;5.80;99.80
9519;DHT22;4797;50.220;8.782;2024-03-25T02:01:43;5.90;99.80
9519;DHT22;4797;50.220;8.782;2024-03-25T02:04:10;5.90;99.80
9519;DHT22;4797;50.220;8.782;2024-03-25T02:06:40;6.00;99.80
9519;DHT22;4797;50.220;8.782;2024-03-25T02:09:09;6.10;99.80
9519;DHT22;4797;50.220;8.782;2024-03-25T02:11:36;6.10;99.80
9519;DHT22;4797;50.220;8.782;2024-03-25T02:14:04;6.20;99.80
9519;DHT22;4797;50.220;8.782;2024-03-25T02:16:30;6.20;99.80
9519;DHT22;4797;50.220;8.782;2024-03-25T02:18:58;6.20;99.80
9519;DHT22;4797;50.220;8.782;2024-03-25T02:21:24;6.20;99.80
9519;DHT22;4797;50.220;8.782;2024-03-25T02:23:53;6.30;99.80
9519;DHT22;4797;50.220;8.782;2024-03-25T02:26:23;6.30;99.80
9519;DHT22;4797;50.220;8.782;2024-03-25T02:28:50;6.30;99.80
9519;DHT22;4797;50.220;8.782;2024-03-25T02:31:16;6.30;99.80
9519;DHT22;4797;50.220;8.782;2024-03-25T02:33:43;6.30;99.80
9519;DHT22;4797;50.220;8.782;2024-03-25T02:36:09;6.30;99.80
9519;DHT22;4797;50.220;8.782;2024-03-25T02:38:36;6.40;99.80
9519;DHT22;4797;50.220;8.782;2024-03-25T02:41:03;6.40;99.80
9519;DHT22;4797;50.220;8.782;2024-03-25T02:43:33;6.40;99.80
9519;DHT22;4797;50.220;8.782;2024-03-25T02:45:59;6.40;99.80
9519;DHT22;4797;50.220;8.782;2024-03-25T02:48:26;6.40;99.80
9519;DHT22;4797;50.220;8.782;2024-03-25T02:50:52;6.40;99.80
9519;DHT22;4797;50.220;8.782;2024-03-25T02:53:19;6.40;99.80
9519;DHT22;4797;50.220;8.782;2024-03-25T02:55:45;6.30;99.80
9519;DHT22;4797;50.220;8.782;2024-03-25T02:58:12;6.30;99.80
9519;DHT22;4797;50.220;8.782;2024-03-25T03:00:39;6.30;99.80
9519;DHT22;4797;50.220;8.782;2024-03-25T03:03:06;6.30;99.80
9519;DHT22;4797;50.220;8.782;2024-03-25T03:05:33;6.30;99.80
9519;DHT22;4797;50.220;8.782;2024-03-25T03:08:01;6.30;99.80
9519;DHT22;4797;50.220;8.782;2024-03-25T03:10:27;6.30;99.80
9519;DHT22;4797;50.220;8.782;2024-03-25T03:12:54;6.30;99.80
9519;DHT22;4797;50.220;8.782;2024-03-25T03:15:19;6.20;99.80
9519;DHT22;4797;50.220;8.782;2024-03-25T03:17:48;6.20;99.80
9519;DHT22;4797;50.220;8.782;2024-03-25T03:20:14;6.20;99.80
9519;DHT22;4797;50.220;8.782;2024-03-25T03:22:41;6.20;99.80
9519;DHT22;4797;50.220;8.782;2024-03-25T03:25:08;6.20;99.80
9519;DHT22;4797;50.220;8.782;2024-03-25T03:27:34;6.20;99.80
9519;DHT22;4797;50.220;8.782;2024-03-25T03:30:00;6.20;99.80
9519;DHT22;4797;50.220;8.782;2024-03-25T03:32:27;6.10;99.80
9519;DHT22;4797;50.220;8.782;2024-03-25T03:34:55;6.10;99.80
9519;DHT22;4797;50.220;8.782;2024-03-25T03:37:22;5.90;99.80
9519;DHT22;4797;50.220;8.782;2024-03-25T03:39:49;5.90;99.80
9519;DHT22;4797;50.220;8.782;2024-03-25T03:42:16;5.80;99.80
9519;DHT22;4797;50.220;8.782;2024-03-25T03:44:42;5.70;99.80
9519;DHT22;4797;50.220;8.782;2024-03-25T03:47:09;5.60;99.80
9519;DHT22;4797;50.220;8.782;2024-03-25T03:49:35;5.50;99.80
9519;DHT22;4797;50.220;8.782;2024-03-25T03:52:04;5.50;99.80
9519;DHT22;4797;50.220;8.782;2024-03-25T03:54:30;5.60;99.80
9519;DHT22;4797;50.220;8.782;2024-03-25T03:56:57;5.60;99.80
9519;DHT22;4797;50.220;8.782;2024-03-25T03:59:23;5.60;99.80
9519;DHT22;4797;50.220;8.782;2024-03-25T04:01:50;5.70;99.80
9519;DHT22;4797;50.220;8.782;2024-03-25T04:04:16;5.60;99.80
9519;DHT22;4797;50.220;8.782;2024-03-25T04:06:43;5.70;99.80
9519;DHT22;4797;50.220;8.782;2024-03-25T04:09:10;5.70;99.80
9519;DHT22;4797;50.220;8.782;2024-03-25T04:11:37;5.70;99.80
9519;DHT22;4797;50.220;8.782;2024-03-25T04:14:03;5.60;99.80
9519;DHT22;4797;50.220;8.782;2024-03-25T04:16:30;5.60;99.80
9519;DHT22;4797;50.220;8.782;2024-03-25T04:18:56;5.60;99.80
9519;DHT22;4797;50.220;8.782;2024-03-25T04:21:23;5.60;99.80
9519;DHT22;4797;50.220;8.782;2024-03-25T04:23:49;5.60;99.80
9519;DHT22;4797;50.220;8.782;2024-03-25T04:26:17;5.50;99.80
9519;DHT22;4797;50.220;8.782;2024-03-25T04:28:44;5.40;99.80
9519;DHT22;4797;50.220;8.782;2024-03-25T04:31:11;5.20;99.80
9519;DHT22;4797;50.220;8.782;2024-03-25T04:33:37;5.10;99.80
9519;DHT22;4797;50.220;8.782;2024-03-25T04:36:04;5.00;99.80
9519;DHT22;4797;50.220;8.782;2024-03-25T04:38:30;5.00;99.80
9519;DHT22;4797;50.220;8.782;2024-03-25T04:40:56;4.90;99.80
9519;DHT22;4797;50.220;8.782;2024-03-25T04:43:24;4.90;99.80
9519;DHT22;4797;50.220;8.782;2024-03-25T04:45:50;4.80;99.80
9519;DHT22;4797;50.220;8.782;2024-03-25T04:48:16;4.90;99.80
9519;DHT22;4797;50.220;8.782;2024-03-25T04:50:42;4.90;99.80
9519;DHT22;4797;50.220;8.782;2024-03-25T04:53:08;4.80;99.80
9519;DHT22;4797;50.220;8.782;2024-03-25T04:55:34;4.80;99.80
9519;DHT22;4797;50.220;8.782;2024-03-25T04:58:00;4.80;99.80
9519;DHT22;4797;50.220;8.782;2024-03-25T05:00:28;4.80;99.80
9519;DHT22;4797;50.220;8.782;2024-03-25T05:02:54;4.80;99.80
9519;DHT22;4797;50.220;8.782;2024-03-25T05:05:20;4.80;99.80
9519;DHT22;4797;50.220;8.782;2024-03-25T05:07:46;4.70;99.80
9519;DHT22;4797;50.220;8.782;2024-03-25T05:10:12;4.60;99.80
9519;DHT22;4797;50.220;8.782;2024-03-25T05:12:38;4.50;99.80
9519;DHT22;4797;50.220;8.782;2024-03-25T05:15:07;4.40;99.80
9519;DHT22;4797;50.220;8.782;2024-03-25T05:17:34;4.30;99.80
9519;DHT22;4797;50.220;8.782;2024-03-25T05:20:00;4.30;99.80
9519;DHT22;4797;50.220;8.782;2024-03-25T05:22:26;4.40;99.80
9519;DHT22;4797;50.220;8.782;2024-03-25T05:24:52;4.40;99.80
9519;DHT22;4797;50.220;8.782;2024-03-25T05:27:18;4.40;99.80
9519;DHT22;4797;50.220;8.782;2024-03-25T05:29:44;4.30;99.80
9519;DHT22;4797;50.220;8.782;2024-03-25T05:32:11;4.30;99.80
9519;DHT22;4797;50.220;8.782;2024-03-25T05:34:38;4.30;99.80
9519;DHT22;4797;50.220;8.782;2024-03-25T05:37:04;4.30;99.80
9519;DHT22;4797;50.220;8.782;2024-03-25T05:39:30;4.30;99.80
9519;DHT22;4797;50.220;8.782;2024-03-25T05:41:56;4.30;99.80
9519;DHT22;4797;50.220;8.782;2024-03-25T05:44:22;4.20;99.80
9519;DHT22;4797;50.220;8.782;2024-03-25T05:46:48;4.20;99.80
9519;DHT22;4797;50.220;8.782;2024-03-25T05:49:14;4.30;99.80
9519;DHT22;4797;50.220;8.782;2024-03-25T05:51:42;4.30;99.80
9519;DHT22;4797;50.220;8.782;2024-03-25T05:54:08;4.40;99.80
9519;DHT22;4797;50.220;8.782;2024-03-25T05:56:34;4.50;99.80
9519;DHT22;4797;50.220;8.782;2024-03-25T05:59:00;4.60;99.80
9519;DHT22;4797;50.220;8.782;2024-03-25T06:01:26;4.60;99.80
9519;DHT22;4797;50.220;8.782;2024-03-25T06:03:53;4.60;99.80
9519;DHT22;4797;50.220;8.782;2024-03-25T06:06:19;4.70;99.80
9519;DHT22;4797;50.220;8.782;2024-03-25T06:08:47;4.80;99.80
9519;DHT22;4797;50.220;8.782;2024-03-25T06:11:13;4.80;99.80
9519;DHT22;4797;50.220;8.782;2024-03-25T06:13:39;4.90;99.80
9519;DHT22;4797;50.220;8.782;2024-03-25T06:16:06;5.00;99.80
9519;DHT22;4797;50.220;8.782;2024-03-25T06:18:32;5.00;99.80
9519;DHT22;4797;50.220;8.782;2024-03-25T06:20:58;5.10;99.80
9519;DHT22;4797;50.220;8.782;2024-03-25T06:23:24;5.20;99.80
9519;DHT22;4797;50.220;8.782;2024-03-25T06:25:53;5.40;99.80
9519;DHT22;4797;50.220;8.782;2024-03-25T06:28:19;5.60;99.80
9519;DHT22;4797;50.220;8.782;2024-03-25T06:30:46;5.70;99.80
9519;DHT22;4797;50.220;8.782;2024-03-25T06:33:30;5.80;99.80
9519;DHT22;4797;50.220;8.782;2024-03-25T06:36:15;5.90;99.80
9519;DHT22;4797;50.220;8.782;2024-03-25T06:38:41;5.90;99.80
9519;DHT22;4797;50.220;8.782;2024-03-25T06:41:09;6.00;99.80
9519;DHT22;4797;50.220;8.782;2024-03-25T06:43:35;6.10;99.80
9519;DHT22;4797;50.220;8.782;2024-03-25T06:46:01;6.20;99.80
9519;DHT22;4797;50.220;8.782;2024-03-25T06:48:27;6.30;99.80
9519;DHT22;4797;50.220;8.782;2024-03-25T06:50:54;6.30;99.80
9519;DHT22;4797;50.220;8.782;2024-03-25T06:53:21;6.20;99.80
9519;DHT22;4797;50.220;8.782;2024-03-25T06:55:54;6.10;99.80
9519;DHT22;4797;50.220;8.782;2024-03-25T06:58:22;6.10;99.80
9519;DHT22;4797;50.220;8.782;2024-03-25T07:00:49;6.10;99.80
9519;DHT22;4797;50.220;8.782;2024-03-25T07:03:15;6.20;99.80
9519;DHT22;4797;50.220;8.782;2024-03-25T07:05:43;6.30;99.80
9519;DHT22;4797;50.220;8.782;2024-03-25T07:08:09;6.40;99.80
9519;DHT22;4797;50.220;8.782;2024-03-25T07:10:35;6.50;99.80
9519;DHT22;4797;50.220;8.782;2024-03-25T07:13:02;6.50;99.80
9519;DHT22;4797;50.220;8.782;2024-03-25T07:15:29;6.60;99.80
9519;DHT22;4797;50.220;8.782;2024-03-25T07:17:55;6.70;99.80
9519;DHT22;4797;50.220;8.782;2024-03-25T07:20:21;6.80;99.80
9519;DHT22;4797;50.220;8.782;2024-03-25T07:22:47;7.00;99.80
9519;DHT22;4797;50.220;8.782;2024-03-25T07:25:13;7.20;99.80
9519;DHT22;4797;50.220;8.782;2024-03-25T07:27:40;7.40;99.80
9519;DHT22;4797;50.220;8.782;2024-03-25T07:30:07;7.50;99.80
9519;DHT22;4797;50.220;8.782;2024-03-25T07:32:34;7.50;99.80
9519;DHT22;4797;50.220;8.782;2024-03-25T07:35:00;7.70;99.80
9519;DHT22;4797;50.220;8.782;2024-03-25T07:37:26;7.90;99.80
9519;DHT22;4797;50.220;8.782;2024-03-25T07:39:53;7.90;99.80
9519;DHT22;4797;50.220;8.782;2024-03-25T07:42:19;7.90;99.80
9519;DHT22;4797;50.220;8.782;2024-03-25T07:44:45;7.80;99.80
9519;DHT22;4797;50.220;8.782;2024-03-25T07:47:11;7.70;99.80
9519;DHT22;4797;50.220;8.782;2024-03-25T07:49:38;7.60;99.80
9519;DHT22;4797;50.220;8.782;2024-03-25T07:52:05;7.50;99.80
9519;DHT22;4797;50.220;8.782;2024-03-25T07:54:31;7.60;99.80
9519;DHT22;4797;50.220;8.782;2024-03-25T07:56:57;7.60;99.80
9519;DHT22;4797;50.220;8.782;2024-03-25T07:59:23;7.50;99.80
9519;DHT22;4797;50.220;8.782;2024-03-25T08:01:49;7.50;99.80
9519;DHT22;4797;50.220;8.782;2024-03-25T08:04:15;7.50;99.80
9519;DHT22;4797;50.220;8.782;2024-03-25T08:06:42;7.50;99.80
9519;DHT22;4797;50.220;8.782;2024-03-25T08:09:08;7.50;99.80
9519;DHT22;4797;50.220;8.782;2024-03-25T08:11:35;7.70;99.80
9519;DHT22;4797;50.220;8.782;2024-03-25T08:14:01;7.80;99.80
9519;DHT22;4797;50.220;8.782;2024-03-25T08:16:27;8.00;99.80
9519;DHT22;4797;50.220;8.782;2024-03-25T08:18:53;8.20;99.80
9519;DHT22;4797;50.220;8.782;2024-03-25T08:21:19;8.20;99.80
9519;DHT22;4797;50.220;8.782;2024-03-25T08:23:47;8.20;99.80
9519;DHT22;4797;50.220;8.782;2024-03-25T08:26:13;8.40;99.80
9519;DHT22;4797;50.220;8.782;2024-03-25T08:28:39;8.40;99.80
9519;DHT22;4797;50.220;8.782;2024-03-25T08:31:05;8.40;99.80
9519;DHT22;4797;50.220;8.782;2024-03-25T08:33:31;8.50;99.80
9519;DHT22;4797;50.220;8.782;2024-03-25T08:35:57;8.60;99.80
9519;DHT22;4797;50.220;8.782;2024-03-25T08:38:23;8.70;99.80
9519;DHT22;4797;50.220;8.782;2024-03-25T08:40:52;8.70;99.80
9519;DHT22;4797;50.220;8.782;2024-03-25T08:43:18;8.80;99.80
9519;DHT22;4797;50.220;8.782;2024-03-25T08:45:44;8.90;99.80
9519;DHT22;4797;50.220;8.782;2024-03-25T08:48:10;9.10;99.80
9519;DHT22;4797;50.220;8.782;2024-03-25T08:50:36;9.10;99.80
9519;DHT22;4797;50.220;8.782;2024-03-25T08:53:03;9.20;99.80
9519;DHT22;4797;50.220;8.782;2024-03-25T08:55:29;9.30;99.80
9519;DHT22;4797;50.220;8.782;2024-03-25T08:57:57;9.40;99.80
9519;DHT22;4797;50.220;8.782;2024-03-25T09:00:24;9.60;99.80
9519;DHT22;4797;50.220;8.782;2024-03-25T09:02:50;9.80;99.80
9519;DHT22;4797;50.220;8.782;2024-03-25T09:05:16;9.90;99.80
9519;DHT22;4797;50.220;8.782;2024-03-25T09:07:43;9.90;99.80
9519;DHT22;4797;50.220;8.782;2024-03-25T09:10:10;9.70;99.80
9519;DHT22;4797;50.220;8.782;2024-03-25T09:12:54;9.80;99.80
9519;DHT22;4797;50.220;8.782;2024-03-25T09:15:22;10.20;99.80
9519;DHT22;4797;50.220;8.782;2024-03-25T09:17:48;10.80;99.80
9519;DHT22;4797;50.220;8.782;2024-03-25T09:20:14;11.10;99.80
9519;DHT22;4797;50.220;8.782;2024-03-25T09:22:42;11.30;99.80
9519;DHT22;4797;50.220;8.782;2024-03-25T09:25:08;11.30;99.80
9519;DHT22;4797;50.220;8.782;2024-03-25T09:27:34;11.30;99.80
9519;DHT22;4797;50.220;8.782;2024-03-25T09:30:01;11.40;99.40
9519;DHT22;4797;50.220;8.782;2024-03-25T09:32:28;11.20;99.20
9519;DHT22;4797;50.220;8.782;2024-03-25T09:34:54;11.10;99.80
9519;DHT22;4797;50.220;8.782;2024-03-25T09:37:20;11.00;99.80
9519;DHT22;4797;50.220;8.782;2024-03-25T09:39:46;11.30;99.80
9519;DHT22;4797;50.220;8.782;2024-03-25T09:42:15;11.60;99.80
9519;DHT22;4797;50.220;8.782;2024-03-25T09:44:41;12.00;99.70
9519;DHT22;4797;50.220;8.782;2024-03-25T09:47:07;12.30;99.80
9519;DHT22;4797;50.220;8.782;2024-03-25T09:49:35;12.40;99.60
9519;DHT22;4797;50.220;8.782;2024-03-25T09:52:03;12.30;98.70
9519;DHT22;4797;50.220;8.782;2024-03-25T09:54:29;12.10;98.40
9519;DHT22;4797;50.220;8.782;2024-03-25T09:56:55;12.00;99.00
9519;DHT22;4797;50.220;8.782;2024-03-25T09:59:21;12.10;99.80
9519;DHT22;4797;50.220;8.782;2024-03-25T10:01:47;12.30;97.00
9519;DHT22;4797;50.220;8.782;2024-03-25T10:04:14;12.40;96.60
9519;DHT22;4797;50.220;8.782;2024-03-25T10:06:41;12.30;96.80
9519;DHT22;4797;50.220;8.782;2024-03-25T10:09:07;12.30;95.60
9519;DHT22;4797;50.220;8.782;2024-03-25T10:11:34;12.30;95.90
9519;DHT22;4797;50.220;8.782;2024-03-25T10:14:01;12.30;95.70
9519;DHT22;4797;50.220;8.782;2024-03-25T10:16:27;12.30;97.40
9519;DHT22;4797;50.220;8.782;2024-03-25T10:18:53;12.40;96.70
9519;DHT22;4797;50.220;8.782;2024-03-25T10:21:20;12.40;97.90
9519;DHT22;4797;50.220;8.782;2024-03-25T10:23:48;12.40;97.30
9519;DHT22;4797;50.220;8.782;2024-03-25T10:26:27;12.40;95.80
9519;DHT22;4797;50.220;8.782;2024-03-25T10:29:03;12.20;95.60
9519;DHT22;4797;50.220;8.782;2024-03-25T10:31:29;12.10;96.70
9519;DHT22;4797;50.220;8.782;2024-03-25T10:33:56;12.30;96.70
9519;DHT22;4797;50.220;8.782;2024-03-25T10:36:22;12.40;97.00
9519;DHT22;4797;50.220;8.782;2024-03-25T10:38:54;12.60;94.50
9519;DHT22;4797;50.220;8.782;2024-03-25T10:41:21;12.70;96.10
9519;DHT22;4797;50.220;8.782;2024-03-25T10:43:47;12.90;96.80
9519;DHT22;4797;50.220;8.782;2024-03-25T10:46:18;12.90;92.70
9519;DHT22;4797;50.220;8.782;2024-03-25T10:48:51;13.00;94.80
9519;DHT22;4797;50.220;8.782;2024-03-25T10:51:20;12.70;91.70
9519;DHT22;4797;50.220;8.782;2024-03-25T10:53:51;12.70;94.60
9519;DHT22;4797;50.220;8.782;2024-03-25T10:56:20;12.90;94.30
9519;DHT22;4797;50.220;8.782;2024-03-25T10:58:48;12.90;93.80
9519;DHT22;4797;50.220;8.782;2024-03-25T11:01:16;13.20;93.10
9519;DHT22;4797;50.220;8.782;2024-03-25T11:03:43;13.10;91.90
9519;DHT22;4797;50.220;8.782;2024-03-25T11:06:10;13.10;91.80
9519;DHT22;4797;50.220;8.782;2024-03-25T11:08:36;13.10;91.60
9519;DHT22;4797;50.220;8.782;2024-03-25T11:11:05;13.40;93.50
9519;DHT22;4797;50.220;8.782;2024-03-25T11:13:31;13.90;91.80
9519;DHT22;4797;50.220;8.782;2024-03-25T11:15:58;14.00;90.20
9519;DHT22;4797;50.220;8.782;2024-03-25T11:18:25;14.20;91.40
9519;DHT22;4797;50.220;8.782;2024-03-25T11:21:01;14.30;89.60
9519;DHT22;4797;50.220;8.782;2024-03-25T11:23:35;14.50;88.70
9519;DHT22;4797;50.220;8.782;2024-03-25T11:26:02;14.50;86.30
9519;DHT22;4797;50.220;8.782;2024-03-25T11:28:29;14.60;85.50
9519;DHT22;4797;50.220;8.782;2024-03-25T11:30:56;14.70;86.40
9519;DHT22;4797;50.220;8.782;2024-03-25T11:33:22;15.20;89.00
9519;DHT22;4797;50.220;8.782;2024-03-25T11:35:49;15.70;85.60
9519;DHT22;4797;50.220;8.782;2024-03-25T11:38:15;16.00;86.50
9519;DHT22;4797;50.220;8.782;2024-03-25T11:40:43;16.10;84.90
9519;DHT22;4797;50.220;8.782;2024-03-25T11:43:10;15.90;83.70
9519;DHT22;4797;50.220;8.782;2024-03-25T11:45:37;17.80;82.40
9519;DHT22;4797;50.220;8.782;2024-03-25T11:48:05;19.50;77.50
9519;DHT22;4797;50.220;8.782;2024-03-25T11:50:34;21.30;72.80
9519;DHT22;4797;50.220;8.782;2024-03-25T11:53:04;22.50;70.90
9519;DHT22;4797;50.220;8.782;2024-03-25T11:55:30;23.10;69.90
9519;DHT22;4797;50.220;8.782;2024-03-25T11:57:57;24.50;68.40
9519;DHT22;4797;50.220;8.782;2024-03-25T12:00:24;25.20;66.40
9519;DHT22;4797;50.220;8.782;2024-03-25T12:02:51;25.90;64.00
9519;DHT22;4797;50.220;8.782;2024-03-25T12:05:18;26.50;61.30
9519;DHT22;4797;50.220;8.782;2024-03-25T12:07:45;27.10;62.50
9519;DHT22;4797;50.220;8.782;2024-03-25T12:10:11;27.90;57.80
9519;DHT22;4797;50.220;8.782;2024-03-25T12:12:55;27.10;60.40
9519;DHT22;4797;50.220;8.782;2024-03-25T12:15:22;27.30;59.50
9519;DHT22;4797;50.220;8.782;2024-03-25T12:17:48;27.60;59.30
9519;DHT22;4797;50.220;8.782;2024-03-25T12:20:16;27.90;60.20
9519;DHT22;4797;50.220;8.782;2024-03-25T12:22:43;28.50;57.00
9519;DHT22;4797;50.220;8.782;2024-03-25T12:25:09;28.70;55.80
9519;DHT22;4797;50.220;8.782;2024-03-25T12:27:37;29.20;56.30
9519;DHT22;4797;50.220;8.782;2024-03-25T12:30:05;29.20;55.20
9519;DHT22;4797;50.220;8.782;2024-03-25T12:32:36;29.50;56.90
9519;DHT22;4797;50.220;8.782;2024-03-25T12:35:03;30.10;56.40
9519;DHT22;4797;50.220;8.782;2024-03-25T12:37:33;29.10;56.40
9519;DHT22;4797;50.220;8.782;2024-03-25T12:39:59;28.10;57.20
9519;DHT22;4797;50.220;8.782;2024-03-25T12:42:26;26.50;58.40
9519;DHT22;4797;50.220;8.782;2024-03-25T12:44:53;25.60;60.80
9519;DHT22;4797;50.220;8.782;2024-03-25T12:47:22;26.10;59.30
9519;DHT22;4797;50.220;8.782;2024-03-25T12:49:48;27.70;58.80
9519;DHT22;4797;50.220;8.782;2024-03-25T12:52:14;29.50;55.70
9519;DHT22;4797;50.220;8.782;2024-03-25T12:54:41;31.10;53.20
9519;DHT22;4797;50.220;8.782;2024-03-25T12:57:08;31.50;53.70
9519;DHT22;4797;50.220;8.782;2024-03-25T12:59:34;32.30;51.50
9519;DHT22;4797;50.220;8.782;2024-03-25T13:02:00;32.30;51.30
9519;DHT22;4797;50.220;8.782;2024-03-25T13:04:26;31.70;51.30
9519;DHT22;4797;50.220;8.782;2024-03-25T13:06:52;31.20;52.50
9519;DHT22;4797;50.220;8.782;2024-03-25T13:09:21;31.20;52.60
9519;DHT22;4797;50.220;8.782;2024-03-25T13:11:49;31.90;51.40
9519;DHT22;4797;50.220;8.782;2024-03-25T13:14:15;32.10;50.40
9519;DHT22;4797;50.220;8.782;2024-03-25T13:16:41;32.30;49.30
9519;DHT22;4797;50.220;8.782;2024-03-25T13:19:07;32.60;48.20
9519;DHT22;4797;50.220;8.782;2024-03-25T13:21:33;32.70;49.70
9519;DHT22;4797;50.220;8.782;2024-03-25T13:24:00;33.70;47.50
9519;DHT22;4797;50.220;8.782;2024-03-25T13:26:26;32.80;48.10
9519;DHT22;4797;50.220;8.782;2024-03-25T13:28:54;31.10;49.50
9519;DHT22;4797;50.220;8.782;2024-03-25T13:31:20;29.50;52.10
9519;DHT22;4797;50.220;8.782;2024-03-25T13:33:46;28.10;53.00
9519;DHT22;4797;50.220;8.782;2024-03-25T13:36:13;28.30;52.00
9519;DHT22;4797;50.220;8.782;2024-03-25T13:38:39;27.50;54.60
9519;DHT22;4797;50.220;8.782;2024-03-25T13:41:05;27.50;54.70
9519;DHT22;4797;50.220;8.782;2024-03-25T13:43:31;26.90;55.70
9519;DHT22;4797;50.220;8.782;2024-03-25T13:45:58;26.30;57.00
9519;DHT22;4797;50.220;8.782;2024-03-25T13:48:24;26.60;55.90
9519;DHT22;4797;50.220;8.782;2024-03-25T13:50:53;26.40;54.60
9519;DHT22;4797;50.220;8.782;2024-03-25T13:53:20;27.80;54.30
9519;DHT22;4797;50.220;8.782;2024-03-25T13:55:46;29.80;51.50
9519;DHT22;4797;50.220;8.782;2024-03-25T13:58:12;29.80;49.30
9519;DHT22;4797;50.220;8.782;2024-03-25T14:00:38;30.10;47.60
9519;DHT22;4797;50.220;8.782;2024-03-25T14:03:06;30.40;49.60
9519;DHT22;4797;50.220;8.782;2024-03-25T14:05:32;30.20;48.20
9519;DHT22;4797;50.220;8.782;2024-03-25T14:07:58;29.80;48.90
9519;DHT22;4797;50.220;8.782;2024-03-25T14:10:24;29.00;49.80
9519;DHT22;4797;50.220;8.782;2024-03-25T14:12:50;27.90;51.80
9519;DHT22;4797;50.220;8.782;2024-03-25T14:15:16;26.10;54.10
9519;DHT22;4797;50.220;8.782;2024-03-25T14:17:45;25.00;57.90
9519;DHT22;4797;50.220;8.782;2024-03-25T14:20:13;24.20;58.50
9519;DHT22;4797;50.220;8.782;2024-03-25T14:22:39;24.70;59.10
9519;DHT22;4797;50.220;8.782;2024-03-25T14:25:06;25.60;56.60
9519;DHT22;4797;50.220;8.782;2024-03-25T14:27:32;26.40;55.10
9519;DHT22;4797;50.220;8.782;2024-03-25T14:29:58;27.50;52.90
9519;DHT22;4797;50.220;8.782;2024-03-25T14:32:24;27.50;52.90
9519;DHT22;4797;50.220;8.782;2024-03-25T14:34:50;26.90;54.80
9519;DHT22;4797;50.220;8.782;2024-03-25T14:37:18;26.80;55.20
9519;DHT22;4797;50.220;8.782;2024-03-25T14:39:44;27.50;53.40
9519;DHT22;4797;50.220;8.782;2024-03-25T14:42:10;29.00;53.00
9519;DHT22;4797;50.220;8.782;2024-03-25T14:44:37;30.20;50.50
9519;DHT22;4797;50.220;8.782;2024-03-25T14:47:03;31.40;49.20
9519;DHT22;4797;50.220;8.782;2024-03-25T14:49:30;29.60;48.60
9519;DHT22;4797;50.220;8.782;2024-03-25T14:51:56;27.20;52.80
9519;DHT22;4797;50.220;8.782;2024-03-25T14:54:23;26.80;51.50
9519;DHT22;4797;50.220;8.782;2024-03-25T14:56:58;26.40;53.40
9519;DHT22;4797;50.220;8.782;2024-03-25T14:59:24;25.70;55.00
9519;DHT22;4797;50.220;8.782;2024-03-25T15:01:50;24.60;57.10
9519;DHT22;4797;50.220;8.782;2024-03-25T15:04:16;24.20;58.80
9519;DHT22;4797;50.220;8.782;2024-03-25T15:06:42;25.10;57.60
9519;DHT22;4797;50.220;8.782;2024-03-25T15:09:08;25.90;56.80
9519;DHT22;4797;50.220;8.782;2024-03-25T15:11:36;25.40;55.10
9519;DHT22;4797;50.220;8.782;2024-03-25T15:14:02;25.50;57.40
9519;DHT22;4797;50.220;8.782;2024-03-25T15:16:28;27.70;53.70
9519;DHT22;4797;50.220;8.782;2024-03-25T15:18:55;29.60;52.30
9519;DHT22;4797;50.220;8.782;2024-03-25T15:21:21;31.10;50.20
9519;DHT22;4797;50.220;8.782;2024-03-25T15:23:47;32.20;48.90
9519;DHT22;4797;50.220;8.782;2024-03-25T15:26:14;32.70;46.70
9519;DHT22;4797;50.220;8.782;2024-03-25T15:28:41;33.50;46.50
9519;DHT22;4797;50.220;8.782;2024-03-25T15:31:07;33.90;45.30
9519;DHT22;4797;50.220;8.782;2024-03-25T15:33:33;33.70;45.60
9519;DHT22;4797;50.220;8.782;2024-03-25T15:35:59;33.30;45.90
9519;DHT22;4797;50.220;8.782;2024-03-25T15:38:25;32.00;46.50
9519;DHT22;4797;50.220;8.782;2024-03-25T15:40:52;30.50;48.40
9519;DHT22;4797;50.220;8.782;2024-03-25T15:43:18;28.30;51.70
9519;DHT22;4797;50.220;8.782;2024-03-25T15:45:54;26.10;55.20
9519;DHT22;4797;50.220;8.782;2024-03-25T15:48:21;24.70;57.20
9519;DHT22;4797;50.220;8.782;2024-03-25T15:50:47;25.40;56.80
9519;DHT22;4797;50.220;8.782;2024-03-25T15:53:13;26.20;55.10
9519;DHT22;4797;50.220;8.782;2024-03-25T15:55:39;25.50;56.10
9519;DHT22;4797;50.220;8.782;2024-03-25T15:58:06;24.30;57.10
9519;DHT22;4797;50.220;8.782;2024-03-25T16:00:32;22.80;59.10
9519;DHT22;4797;50.220;8.782;2024-03-25T16:03:00;21.50;61.80
9519;DHT22;4797;50.220;8.782;2024-03-25T16:05:26;20.40;64.80
9519;DHT22;4797;50.220;8.782;2024-03-25T16:07:52;19.50;67.70
9519;DHT22;4797;50.220;8.782;2024-03-25T16:10:22;19.10;68.50